sensor_id;sensor_type;location;lat;lon;timestamp;P1;durP1;ratioP1;P2;durP2;ratioP2
44987;SDS011;35735;52.226;21.254;2024-02-28T00:05:33;53.40;;;35.50;;
44987;SDS011;35735;52.226;21.254;2024-02-28T00:11:15;52.42;;;34.80;;
44987;SDS011;35735;52.226;21.254;2024-02-28T00:16:56;48.63;;;33.53;;
44987;SDS011;35735;52.226;21.254;2024-02-28T00:22:38;53.58;;;34.55;;
44987;SDS011;35735;52.226;21.254;2024-02-28T00:28:20;47.03;;;32.90;;
44987;SDS011;35735;52.226;21.254;2024-02-28T00:34:02;53.63;;;34.20;;
44987;SDS011;35735;52.226;21.254;2024-02-28T00:39:44;52.40;;;35.65;;
44987;SDS011;35735;52.226;21.254;2024-02-28T00:45:26;49.85;;;34.42;;
44987;SDS011;35735;52.226;21.254;2024-02-28T00:51:08;53.40;;;36.67;;
44987;SDS011;35735;52.226;21.254;2024-02-28T00:56:50;57.87;;;36.07;;
44987;SDS011;35735;52.226;21.254;2024-02-28T01:02:32;56.22;;;35.70;;
44987;SDS011;35735;52.226;21.254;2024-02-28T01:08:13;50.57;;;34.17;;
44987;SDS011;35735;52.226;21.254;2024-02-28T01:13:55;57.17;;;36.33;;
44987;SDS011;35735;52.226;21.254;2024-02-28T01:19:37;55.97;;;36.78;;
44987;SDS011;35735;52.226;21.254;2024-02-28T01:25:19;56.17;;;36.77;;
44987;SDS011;35735;52.226;21.254;2024-02-28T01:31:01;56.60;;;35.08;;
44987;SDS011;35735;52.226;21.254;2024-02-28T01:36:42;55.50;;;37.03;;
44987;SDS011;35735;52.226;21.254;2024-02-28T01:42:24;52.00;;;34.83;;
44987;SDS011;35735;52.226;21.254;2024-02-28T01:48:06;49.78;;;34.35;;
44987;SDS011;35735;52.226;21.254;2024-02-28T01:53:51;55.12;;;35.05;;
44987;SDS011;35735;52.226;21.254;2024-02-28T01:59:34;50.60;;;34.40;;
44987;SDS011;35735;52.226;21.254;2024-02-28T02:05:16;53.13;;;33.87;;
44987;SDS011;35735;52.226;21.254;2024-02-28T02:10:58;48.25;;;31.45;;
44987;SDS011;35735;52.226;21.254;2024-02-28T02:16:40;44.50;;;31.23;;
44987;SDS011;35735;52.226;21.254;2024-02-28T02:22:23;45.60;;;31.33;;
44987;SDS011;35735;52.226;21.254;2024-02-28T02:28:08;46.60;;;32.17;;
44987;SDS011;35735;52.226;21.254;2024-02-28T02:33:50;47.17;;;32.10;;
44987;SDS011;35735;52.226;21.254;2024-02-28T02:39:32;45.42;;;32.13;;
44987;SDS011;35735;52.226;21.254;2024-02-28T02:45:13;49.03;;;32.67;;
44987;SDS011;35735;52.226;21.254;2024-02-28T02:50:55;44.20;;;31.23;;
44987;SDS011;35735;52.226;21.254;2024-02-28T02:56:40;45.25;;;31.92;;
44987;SDS011;35735;52.226;21.254;2024-02-28T03:02:23;43.90;;;31.15;;
44987;SDS011;35735;52.226;21.254;2024-02-28T03:08:05;43.05;;;30.50;;
44987;SDS011;35735;52.226;21.254;2024-02-28T03:13:47;44.10;;;31.12;;
44987;SDS011;35735;52.226;21.254;2024-02-28T03:19:29;43.90;;;31.10;;
44987;SDS011;35735;52.226;21.254;2024-02-28T03:25:10;44.67;;;30.67;;
44987;SDS011;35735;52.226;21.254;2024-02-28T03:30:52;40.85;;;29.70;;
44987;SDS011;35735;52.226;21.254;2024-02-28T03:36:34;46.55;;;31.20;;
44987;SDS011;35735;52.226;21.254;2024-02-28T03:42:16;47.37;;;33.17;;
44987;SDS011;35735;52.226;21.254;2024-02-28T03:47:58;45.60;;;32.80;;
44987;SDS011;35735;52.226;21.254;2024-02-28T03:53:40;43.90;;;31.40;;
44987;SDS011;35735;52.226;21.254;2024-02-28T03:59:22;42.97;;;30.27;;
44987;SDS011;35735;52.226;21.254;2024-02-28T04:05:04;42.58;;;30.30;;
44987;SDS011;35735;52.226;21.254;2024-02-28T04:10:46;41.37;;;29.93;;
44987;SDS011;35735;52.226;21.254;2024-02-28T04:16:28;44.33;;;31.15;;
44987;SDS011;35735;52.226;21.254;2024-02-28T04:22:10;44.67;;;29.67;;
44987;SDS011;35735;52.226;21.254;2024-02-28T04:27:52;39.78;;;29.12;;
44987;SDS011;35735;52.226;21.254;2024-02-28T04:33:33;43.80;;;30.55;;
44987;SDS011;35735;52.226;21.254;2024-02-28T04:39:15;40.25;;;30.33;;
44987;SDS011;35735;52.226;21.254;2024-02-28T04:44:57;43.13;;;30.80;;
44987;SDS011;35735;52.226;21.254;2024-02-28T04:50:39;42.22;;;31.25;;
44987;SDS011;35735;52.226;21.254;2024-02-28T04:56:21;44.10;;;30.93;;
44987;SDS011;35735;52.226;21.254;2024-02-28T05:02:03;44.63;;;31.60;;
44987;SDS011;35735;52.226;21.254;2024-02-28T05:07:44;39.95;;;29.85;;
44987;SDS011;35735;52.226;21.254;2024-02-28T05:13:26;41.92;;;30.12;;
44987;SDS011;35735;52.226;21.254;2024-02-28T05:19:08;38.70;;;29.25;;
44987;SDS011;35735;52.226;21.254;2024-02-28T05:24:50;45.55;;;33.10;;
44987;SDS011;35735;52.226;21.254;2024-02-28T05:30:32;49.90;;;36.22;;
44987;SDS011;35735;52.226;21.254;2024-02-28T05:36:13;44.08;;;32.53;;
44987;SDS011;35735;52.226;21.254;2024-02-28T05:41:55;46.53;;;32.95;;
44987;SDS011;35735;52.226;21.254;2024-02-28T05:47:37;44.47;;;31.47;;
44987;SDS011;35735;52.226;21.254;2024-02-28T05:53:19;48.03;;;32.25;;
44987;SDS011;35735;52.226;21.254;2024-02-28T05:59:01;49.10;;;33.20;;
44987;SDS011;35735;52.226;21.254;2024-02-28T06:04:43;73.85;;;43.60;;
44987;SDS011;35735;52.226;21.254;2024-02-28T06:10:24;73.43;;;43.22;;
44987;SDS011;35735;52.226;21.254;2024-02-28T06:16:06;65.10;;;42.78;;
44987;SDS011;35735;52.226;21.254;2024-02-28T06:21:48;57.80;;;40.40;;
44987;SDS011;35735;52.226;21.254;2024-02-28T06:27:30;54.20;;;39.78;;
44987;SDS011;35735;52.226;21.254;2024-02-28T06:33:12;48.80;;;34.30;;
44987;SDS011;35735;52.226;21.254;2024-02-28T06:38:55;45.15;;;33.13;;
44987;SDS011;35735;52.226;21.254;2024-02-28T06:44:37;46.13;;;33.15;;
44987;SDS011;35735;52.226;21.254;2024-02-28T06:50:19;44.85;;;32.05;;
44987;SDS011;35735;52.226;21.254;2024-02-28T06:56:01;44.90;;;33.13;;
44987;SDS011;35735;52.226;21.254;2024-02-28T07:01:43;45.23;;;32.73;;
44987;SDS011;35735;52.226;21.254;2024-02-28T07:07:25;45.25;;;32.15;;
44987;SDS011;35735;52.226;21.254;2024-02-28T07:13:07;42.58;;;31.90;;
44987;SDS011;35735;52.226;21.254;2024-02-28T07:18:48;43.87;;;31.55;;
44987;SDS011;35735;52.226;21.254;2024-02-28T07:24:30;43.42;;;31.42;;
44987;SDS011;35735;52.226;21.254;2024-02-28T07:30:13;45.03;;;33.33;;
44987;SDS011;35735;52.226;21.254;2024-02-28T07:35:54;47.23;;;32.53;;
44987;SDS011;35735;52.226;21.254;2024-02-28T07:41:36;40.80;;;30.95;;
44987;SDS011;35735;52.226;21.254;2024-02-28T07:47:18;46.97;;;31.70;;
44987;SDS011;35735;52.226;21.254;2024-02-28T07:53:01;44.70;;;31.60;;
44987;SDS011;35735;52.226;21.254;2024-02-28T07:58:43;44.70;;;31.52;;
44987;SDS011;35735;52.226;21.254;2024-02-28T08:04:24;43.22;;;31.92;;
44987;SDS011;35735;52.226;21.254;2024-02-28T08:10:06;43.22;;;31.75;;
44987;SDS011;35735;52.226;21.254;2024-02-28T08:15:48;43.40;;;31.70;;
44987;SDS011;35735;52.226;21.254;2024-02-28T08:21:30;46.70;;;33.67;;
44987;SDS011;35735;52.226;21.254;2024-02-28T08:27:12;46.43;;;32.47;;
44987;SDS011;35735;52.226;21.254;2024-02-28T08:32:54;45.10;;;32.58;;
44987;SDS011;35735;52.226;21.254;2024-02-28T08:38:36;43.28;;;32.42;;
44987;SDS011;35735;52.226;21.254;2024-02-28T08:44:17;46.22;;;33.03;;
44987;SDS011;35735;52.226;21.254;2024-02-28T08:49:59;48.97;;;34.03;;
44987;SDS011;35735;52.226;21.254;2024-02-28T08:55:41;53.85;;;33.78;;
44987;SDS011;35735;52.226;21.254;2024-02-28T09:01:23;47.38;;;33.65;;
44987;SDS011;35735;52.226;21.254;2024-02-28T09:07:05;43.95;;;32.70;;
44987;SDS011;35735;52.226;21.254;2024-02-28T09:12:47;44.10;;;32.75;;
44987;SDS011;35735;52.226;21.254;2024-02-28T09:18:28;44.53;;;32.55;;
44987;SDS011;35735;52.226;21.254;2024-02-28T09:24:10;48.37;;;34.40;;
44987;SDS011;35735;52.226;21.254;2024-02-28T09:29:52;44.45;;;34.38;;
44987;SDS011;35735;52.226;21.254;2024-02-28T09:35:35;46.10;;;33.78;;
44987;SDS011;35735;52.226;21.254;2024-02-28T09:41:17;47.62;;;33.47;;
44987;SDS011;35735;52.226;21.254;2024-02-28T09:46:59;55.25;;;35.22;;
44987;SDS011;35735;52.226;21.254;2024-02-28T09:52:41;42.75;;;32.88;;
44987;SDS011;35735;52.226;21.254;2024-02-28T09:58:23;45.90;;;33.00;;
44987;SDS011;35735;52.226;21.254;2024-02-28T10:04:05;43.70;;;32.15;;
44987;SDS011;35735;52.226;21.254;2024-02-28T10:09:47;44.63;;;33.20;;
44987;SDS011;35735;52.226;21.254;2024-02-28T10:15:30;41.58;;;31.73;;
44987;SDS011;35735;52.226;21.254;2024-02-28T10:21:12;39.90;;;30.85;;
44987;SDS011;35735;52.226;21.254;2024-02-28T10:26:55;38.55;;;29.95;;
44987;SDS011;35735;52.226;21.254;2024-02-28T10:32:37;37.35;;;29.23;;
44987;SDS011;35735;52.226;21.254;2024-02-28T10:38:30;37.00;;;27.73;;
44987;SDS011;35735;52.226;21.254;2024-02-28T10:44:14;33.60;;;25.77;;
44987;SDS011;35735;52.226;21.254;2024-02-28T10:49:58;33.73;;;24.27;;
44987;SDS011;35735;52.226;21.254;2024-02-28T10:55:40;36.70;;;26.95;;
44987;SDS011;35735;52.226;21.254;2024-02-28T11:01:22;32.10;;;24.80;;
44987;SDS011;35735;52.226;21.254;2024-02-28T11:07:05;31.45;;;24.20;;
44987;SDS011;35735;52.226;21.254;2024-02-28T11:12:54;30.98;;;23.60;;
44987;SDS011;35735;52.226;21.254;2024-02-28T11:18:36;29.17;;;22.67;;
44987;SDS011;35735;52.226;21.254;2024-02-28T11:24:30;29.33;;;22.45;;
44987;SDS011;35735;52.226;21.254;2024-02-28T11:30:13;29.03;;;21.90;;
44987;SDS011;35735;52.226;21.254;2024-02-28T11:35:58;30.60;;;22.80;;
44987;SDS011;35735;52.226;21.254;2024-02-28T11:41:41;30.77;;;21.93;;
44987;SDS011;35735;52.226;21.254;2024-02-28T11:47:23;30.37;;;22.15;;
44987;SDS011;35735;52.226;21.254;2024-02-28T11:53:08;27.57;;;21.53;;
44987;SDS011;35735;52.226;21.254;2024-02-28T11:58:51;29.07;;;22.73;;
44987;SDS011;35735;52.226;21.254;2024-02-28T12:04:35;30.40;;;23.83;;
44987;SDS011;35735;52.226;21.254;2024-02-28T12:10:17;34.50;;;24.48;;
44987;SDS011;35735;52.226;21.254;2024-02-28T12:16:00;35.38;;;24.73;;
44987;SDS011;35735;52.226;21.254;2024-02-28T12:21:42;33.03;;;24.73;;
44987;SDS011;35735;52.226;21.254;2024-02-28T12:27:24;35.65;;;27.20;;
44987;SDS011;35735;52.226;21.254;2024-02-28T12:33:06;33.67;;;25.02;;
44987;SDS011;35735;52.226;21.254;2024-02-28T12:38:48;37.73;;;25.77;;
44987;SDS011;35735;52.226;21.254;2024-02-28T12:44:29;38.15;;;25.90;;
44987;SDS011;35735;52.226;21.254;2024-02-28T12:50:11;36.63;;;25.13;;
44987;SDS011;35735;52.226;21.254;2024-02-28T12:55:53;37.60;;;26.98;;
44987;SDS011;35735;52.226;21.254;2024-02-28T13:01:35;38.00;;;26.73;;
44987;SDS011;35735;52.226;21.254;2024-02-28T13:07:17;38.90;;;27.60;;
44987;SDS011;35735;52.226;21.254;2024-02-28T13:12:59;41.85;;;29.60;;
44987;SDS011;35735;52.226;21.254;2024-02-28T13:18:41;48.95;;;32.15;;
44987;SDS011;35735;52.226;21.254;2024-02-28T13:24:23;70.78;;;46.42;;
44987;SDS011;35735;52.226;21.254;2024-02-28T13:30:05;70.70;;;47.40;;
44987;SDS011;35735;52.226;21.254;2024-02-28T13:35:47;69.40;;;48.22;;
44987;SDS011;35735;52.226;21.254;2024-02-28T13:41:29;68.75;;;45.38;;
44987;SDS011;35735;52.226;21.254;2024-02-28T13:47:11;69.00;;;44.35;;
44987;SDS011;35735;52.226;21.254;2024-02-28T13:52:53;64.07;;;41.85;;
44987;SDS011;35735;52.226;21.254;2024-02-28T13:58:35;67.45;;;41.20;;
44987;SDS011;35735;52.226;21.254;2024-02-28T14:04:17;65.28;;;39.60;;
44987;SDS011;35735;52.226;21.254;2024-02-28T14:09:59;65.18;;;40.97;;
44987;SDS011;35735;52.226;21.254;2024-02-28T14:15:41;65.87;;;41.37;;
44987;SDS011;35735;52.226;21.254;2024-02-28T14:21:22;55.55;;;37.70;;
44987;SDS011;35735;52.226;21.254;2024-02-28T14:27:05;50.42;;;34.25;;
44987;SDS011;35735;52.226;21.254;2024-02-28T14:32:47;47.28;;;32.65;;
44987;SDS011;35735;52.226;21.254;2024-02-28T14:38:28;48.53;;;32.92;;
44987;SDS011;35735;52.226;21.254;2024-02-28T14:44:11;46.40;;;32.53;;
44987;SDS011;35735;52.226;21.254;2024-02-28T14:49:52;43.25;;;31.33;;
44987;SDS011;35735;52.226;21.254;2024-02-28T14:55:34;42.25;;;29.23;;
44987;SDS011;35735;52.226;21.254;2024-02-28T15:01:16;33.00;;;24.20;;
44987;SDS011;35735;52.226;21.254;2024-02-28T15:06:58;30.25;;;22.62;;
44987;SDS011;35735;52.226;21.254;2024-02-28T15:12:40;30.30;;;21.73;;
44987;SDS011;35735;52.226;21.254;2024-02-28T15:18:22;30.60;;;21.23;;
44987;SDS011;35735;52.226;21.254;2024-02-28T15:24:03;29.30;;;21.42;;
44987;SDS011;35735;52.226;21.254;2024-02-28T15:29:45;28.62;;;20.33;;
44987;SDS011;35735;52.226;21.254;2024-02-28T15:35:27;29.50;;;18.87;;
44987;SDS011;35735;52.226;21.254;2024-02-28T15:41:09;25.17;;;18.30;;
44987;SDS011;35735;52.226;21.254;2024-02-28T15:46:51;27.52;;;18.73;;
44987;SDS011;35735;52.226;21.254;2024-02-28T15:52:33;28.33;;;17.62;;
44987;SDS011;35735;52.226;21.254;2024-02-28T15:58:14;30.00;;;19.67;;
44987;SDS011;35735;52.226;21.254;2024-02-28T16:03:56;27.92;;;19.17;;
44987;SDS011;35735;52.226;21.254;2024-02-28T16:09:38;27.23;;;18.55;;
44987;SDS011;35735;52.226;21.254;2024-02-28T16:15:20;25.42;;;18.50;;
44987;SDS011;35735;52.226;21.254;2024-02-28T16:21:02;31.62;;;21.90;;
44987;SDS011;35735;52.226;21.254;2024-02-28T16:26:44;34.25;;;22.48;;
44987;SDS011;35735;52.226;21.254;2024-02-28T16:32:26;32.90;;;23.02;;
44987;SDS011;35735;52.226;21.254;2024-02-28T16:38:08;33.10;;;21.90;;
44987;SDS011;35735;52.226;21.254;2024-02-28T16:43:50;36.33;;;23.17;;
44987;SDS011;35735;52.226;21.254;2024-02-28T16:49:32;33.85;;;23.27;;
44987;SDS011;35735;52.226;21.254;2024-02-28T16:55:14;34.27;;;24.30;;
44987;SDS011;35735;52.226;21.254;2024-02-28T17:00:55;34.10;;;24.17;;
44987;SDS011;35735;52.226;21.254;2024-02-28T17:06:38;38.43;;;25.43;;
44987;SDS011;35735;52.226;21.254;2024-02-28T17:12:19;33.03;;;23.13;;
44987;SDS011;35735;52.226;21.254;2024-02-28T17:18:01;36.90;;;25.90;;
44987;SDS011;35735;52.226;21.254;2024-02-28T17:23:43;34.28;;;24.60;;
44987;SDS011;35735;52.226;21.254;2024-02-28T17:29:25;35.65;;;23.92;;
44987;SDS011;35735;52.226;21.254;2024-02-28T17:35:07;35.25;;;25.73;;
44987;SDS011;35735;52.226;21.254;2024-02-28T17:40:49;32.60;;;24.57;;
44987;SDS011;35735;52.226;21.254;2024-02-28T17:46:31;33.15;;;23.85;;
44987;SDS011;35735;52.226;21.254;2024-02-28T17:52:13;29.98;;;23.00;;
44987;SDS011;35735;52.226;21.254;2024-02-28T17:57:55;31.12;;;22.55;;
44987;SDS011;35735;52.226;21.254;2024-02-28T18:03:37;31.30;;;22.40;;
44987;SDS011;35735;52.226;21.254;2024-02-28T18:09:18;31.80;;;23.13;;
44987;SDS011;35735;52.226;21.254;2024-02-28T18:15:01;31.23;;;23.53;;
44987;SDS011;35735;52.226;21.254;2024-02-28T18:20:43;33.85;;;24.50;;
44987;SDS011;35735;52.226;21.254;2024-02-28T18:26:24;38.63;;;26.87;;
44987;SDS011;35735;52.226;21.254;2024-02-28T18:32:06;40.80;;;26.45;;
44987;SDS011;35735;52.226;21.254;2024-02-28T18:37:48;41.40;;;27.57;;
44987;SDS011;35735;52.226;21.254;2024-02-28T18:43:30;36.10;;;25.62;;
44987;SDS011;35735;52.226;21.254;2024-02-28T18:49:12;41.23;;;28.70;;
44987;SDS011;35735;52.226;21.254;2024-02-28T18:54:54;49.20;;;31.33;;
44987;SDS011;35735;52.226;21.254;2024-02-28T19:00:36;61.03;;;39.80;;
44987;SDS011;35735;52.226;21.254;2024-02-28T19:06:18;50.50;;;33.47;;
44987;SDS011;35735;52.226;21.254;2024-02-28T19:12:00;39.63;;;26.70;;
44987;SDS011;35735;52.226;21.254;2024-02-28T19:17:42;33.20;;;23.62;;
44987;SDS011;35735;52.226;21.254;2024-02-28T19:23:23;29.50;;;22.20;;
44987;SDS011;35735;52.226;21.254;2024-02-28T19:29:05;28.95;;;21.75;;
44987;SDS011;35735;52.226;21.254;2024-02-28T19:34:47;28.48;;;21.70;;
44987;SDS011;35735;52.226;21.254;2024-02-28T19:40:29;27.42;;;20.95;;
44987;SDS011;35735;52.226;21.254;2024-02-28T19:46:11;26.58;;;21.05;;
44987;SDS011;35735;52.226;21.254;2024-02-28T19:51:52;26.15;;;20.52;;
44987;SDS011;35735;52.226;21.254;2024-02-28T19:57:34;27.05;;;21.15;;
44987;SDS011;35735;52.226;21.254;2024-02-28T20:03:16;25.17;;;19.55;;
44987;SDS011;35735;52.226;21.254;2024-02-28T20:08:58;29.63;;;22.10;;
44987;SDS011;35735;52.226;21.254;2024-02-28T20:14:40;28.67;;;21.83;;
44987;SDS011;35735;52.226;21.254;2024-02-28T20:20:22;25.53;;;20.70;;
44987;SDS011;35735;52.226;21.254;2024-02-28T20:26:04;26.17;;;20.95;;
44987;SDS011;35735;52.226;21.254;2024-02-28T20:31:46;26.12;;;20.95;;
44987;SDS011;35735;52.226;21.254;2024-02-28T20:37:28;25.20;;;19.70;;
44987;SDS011;35735;52.226;21.254;2024-02-28T20:43:10;27.93;;;21.50;;
44987;SDS011;35735;52.226;21.254;2024-02-28T20:48:52;25.17;;;20.25;;
44987;SDS011;35735;52.226;21.254;2024-02-28T20:54:34;26.42;;;19.40;;
44987;SDS011;35735;52.226;21.254;2024-02-28T21:00:15;25.98;;;20.40;;
44987;SDS011;35735;52.226;21.254;2024-02-28T21:05:57;25.85;;;19.58;;
44987;SDS011;35735;52.226;21.254;2024-02-28T21:11:39;23.00;;;18.75;;
44987;SDS011;35735;52.226;21.254;2024-02-28T21:17:21;22.23;;;17.50;;
44987;SDS011;35735;52.226;21.254;2024-02-28T21:23:03;21.60;;;17.33;;
44987;SDS011;35735;52.226;21.254;2024-02-28T21:28:45;21.87;;;16.85;;
44987;SDS011;35735;52.226;21.254;2024-02-28T21:34:27;19.70;;;16.40;;
44987;SDS011;35735;52.226;21.254;2024-02-28T21:40:09;22.58;;;17.73;;
44987;SDS011;35735;52.226;21.254;2024-02-28T21:45:51;22.73;;;17.62;;
44987;SDS011;35735;52.226;21.254;2024-02-28T21:51:32;22.20;;;17.45;;
44987;SDS011;35735;52.226;21.254;2024-02-28T21:57:14;24.33;;;19.08;;
44987;SDS011;35735;52.226;21.254;2024-02-28T22:02:56;26.62;;;19.60;;
44987;SDS011;35735;52.226;21.254;2024-02-28T22:08:38;26.42;;;19.60;;
44987;SDS011;35735;52.226;21.254;2024-02-28T22:14:20;25.17;;;19.73;;
44987;SDS011;35735;52.226;21.254;2024-02-28T22:20:02;27.27;;;21.40;;
44987;SDS011;35735;52.226;21.254;2024-02-28T22:25:44;27.52;;;19.60;;
44987;SDS011;35735;52.226;21.254;2024-02-28T22:31:26;25.05;;;19.42;;
44987;SDS011;35735;52.226;21.254;2024-02-28T22:37:08;28.95;;;20.15;;
44987;SDS011;35735;52.226;21.254;2024-02-28T22:42:50;26.17;;;19.67;;
44987;SDS011;35735;52.226;21.254;2024-02-28T22:48:31;25.62;;;19.62;;
44987;SDS011;35735;52.226;21.254;2024-02-28T22:54:13;25.13;;;19.70;;
44987;SDS011;35735;52.226;21.254;2024-02-28T22:59:55;27.85;;;19.73;;
44987;SDS011;35735;52.226;21.254;2024-02-28T23:05:37;27.48;;;20.40;;
44987;SDS011;35735;52.226;21.254;2024-02-28T23:11:19;24.75;;;19.15;;
44987;SDS011;35735;52.226;21.254;2024-02-28T23:17:01;26.40;;;19.12;;
44987;SDS011;35735;52.226;21.254;2024-02-28T23:22:42;27.47;;;19.97;;
44987;SDS011;35735;52.226;21.254;2024-02-28T23:28:24;27.52;;;18.35;;
44987;SDS011;35735;52.226;21.254;2024-02-28T23:34:06;23.92;;;17.30;;
44987;SDS011;35735;52.226;21.254;2024-02-28T23:39:48;24.40;;;17.10;;
44987;SDS011;35735;52.226;21.254;2024-02-28T23:45:30;23.50;;;16.48;;
44987;SDS011;35735;52.226;21.254;2024-02-28T23:51:11;23.35;;;15.77;;
44987;SDS011;35735;52.226;21.254;2024-02-28T23:56:53;21.83;;;15.85;;
